Time;durP1;ratioP1;P1;durP2;ratioP2;P2;SDS_P1;SDS_P2;PMS_P1;PMS_P2;Temp;Humidity;BMP_temperature;BMP_pressure;BME280_temperature;BME280_humidity;BME280_pressure;Samples;Min_cycle;Max_cycle;Signal;HPM_P1;HPM_P2
2021/04/08 00:00:18;;;;;;;5.35;1.58;;;3.90;92.60;;;;;;4925520;29;20121;-92
2021/04/08 00:02:44;;;;;;;3.90;1.52;;;4.00;92.50;;;;;;4925899;29;20355;-91
2021/04/08 00:05:12;;;;;;;1.70;1.30;;;3.90;92.60;;;;;;4928945;29;20063;-90
2021/04/08 00:07:37;;;;;;;2.88;1.52;;;3.80;92.70;;;;;;4925854;29;20325;-91
2021/04/08 00:10:04;;;;;;;4.10;1.35;;;3.80;92.70;;;;;;4925641;29;20126;-92
2021/04/08 00:12:29;;;;;;;2.15;1.23;;;3.80;92.90;;;;;;4925746;29;20036;-92
2021/04/08 00:14:55;;;;;;;2.25;1.55;;;3.80;92.60;;;;;;4925524;29;20142;-91
2021/04/08 00:17:21;;;;;;;4.82;1.35;;;3.80;92.70;;;;;;4925596;29;20066;-91
2021/04/08 00:19:46;;;;;;;2.72;1.35;;;3.80;92.70;;;;;;4925451;29;20433;-92
2021/04/08 00:22:12;;;;;;;2.60;1.42;;;3.80;92.40;;;;;;4925861;29;20051;-91
2021/04/08 00:24:37;;;;;;;4.68;1.83;;;3.80;92.40;;;;;;4926464;29;20382;-91
2021/04/08 00:27:03;;;;;;;3.90;1.70;;;3.80;92.10;;;;;;4926479;29;20043;-91
2021/04/08 00:29:28;;;;;;;2.03;1.48;;;3.80;92.20;;;;;;4925322;29;20402;-92
2021/04/08 00:31:54;;;;;;;5.25;1.85;;;3.70;92.20;;;;;;4925215;29;20410;-92
2021/04/08 00:34:19;;;;;;;1.88;1.27;;;3.70;92.20;;;;;;4925438;29;20303;-92
2021/04/08 00:36:45;;;;;;;4.75;1.40;;;3.80;91.90;;;;;;4925402;29;20043;-92
2021/04/08 00:39:12;;;;;;;4.78;1.85;;;3.80;91.70;;;;;;4925802;29;20053;-92
2021/04/08 00:41:38;;;;;;;5.80;1.55;;;3.80;91.80;;;;;;4925280;29;20051;-91
2021/04/08 00:44:04;;;;;;;3.40;1.48;;;3.80;91.80;;;;;;4925468;29;20395;-92
2021/04/08 00:46:29;;;;;;;8.90;1.95;;;3.70;91.80;;;;;;4925549;29;20044;-91
2021/04/08 00:48:55;;;;;;;4.47;1.33;;;3.80;91.90;;;;;;4925208;29;20044;-92
2021/04/08 00:51:23;;;;;;;5.35;1.92;;;3.70;91.70;;;;;;4925015;29;20365;-91
2021/04/08 00:53:49;;;;;;;1.20;0.85;;;3.60;91.60;;;;;;4925186;29;20098;-92
2021/04/08 00:56:15;;;;;;;5.03;1.15;;;3.60;91.90;;;;;;4925149;29;20032;-92
2021/04/08 00:58:43;;;;;;;7.40;2.05;;;3.60;91.70;;;;;;4928495;29;20040;-92
2021/04/08 01:01:10;;;;;;;2.78;1.33;;;3.50;91.60;;;;;;4925258;29;20047;-92
2021/04/08 01:03:36;;;;;;;3.83;1.42;;;3.50;91.60;;;;;;4925127;29;20043;-93
2021/04/08 01:06:02;;;;;;;9.23;1.25;;;3.50;91.70;;;;;;4925071;29;20126;-93
2021/04/08 01:08:28;;;;;;;7.07;1.50;;;3.50;91.80;;;;;;4925048;29;20079;-92
2021/04/08 01:10:54;;;;;;;7.40;2.03;;;3.40;91.80;;;;;;4924834;29;20172;-92
2021/04/08 01:13:22;;;;;;;2.80;1.10;;;3.30;91.90;;;;;;4926401;29;20402;-93
2021/04/08 01:15:48;;;;;;;4.90;1.30;;;3.30;92.40;;;;;;4930041;29;20142;-91
2021/04/08 01:18:29;;;;;;;9.02;2.17;;;3.30;92.00;;;;;;4929317;29;20043;-90
2021/04/08 01:21:13;;;;;;;4.00;1.90;;;3.30;92.10;;;;;;4928389;29;20044;-92
2021/04/08 01:24:13;;;;;;;9.02;1.67;;;3.30;91.90;;;;;;4929173;29;20040;-93
2021/04/08 01:26:39;;;;;;;4.63;1.55;;;3.30;92.00;;;;;;4928546;29;20042;-92
2021/04/08 01:29:37;;;;;;;7.38;1.42;;;3.20;91.90;;;;;;4928399;29;20051;-93
2021/04/08 01:32:05;;;;;;;10.82;1.80;;;3.20;92.10;;;;;;4928787;29;20091;-92
2021/04/08 01:34:33;;;;;;;5.95;1.90;;;3.20;92.10;;;;;;4928289;29;20038;-92
2021/04/08 01:37:03;;;;;;;5.30;1.10;;;3.30;92.00;;;;;;4928146;29;20114;-91
2021/04/08 01:39:29;;;;;;;6.75;1.60;;;3.30;92.20;;;;;;4928864;29;20040;-91
2021/04/08 01:41:56;;;;;;;3.40;1.60;;;3.20;91.70;;;;;;4928053;29;20058;-91
2021/04/08 01:44:26;;;;;;;5.93;2.45;;;3.30;91.60;;;;;;4945322;29;20382;-91
2021/04/08 01:47:02;;;;;;;4.70;1.50;;;3.30;91.90;;;;;;4927979;29;20040;-90
2021/04/08 01:49:32;;;;;;;6.55;1.60;;;3.30;91.70;;;;;;4928743;29;20102;-90
2021/04/08 01:51:57;;;;;;;6.72;1.98;;;3.20;91.50;;;;;;4932252;29;20032;-92
2021/04/08 01:54:25;;;;;;;9.07;1.50;;;3.20;91.70;;;;;;4928702;29;20051;-92
2021/04/08 01:56:57;;;;;;;5.45;1.58;;;3.20;91.60;;;;;;4928054;29;20046;-92
2021/04/08 01:59:24;;;;;;;8.80;1.52;;;3.30;91.90;;;;;;4928205;29;20040;-92
2021/04/08 02:01:52;;;;;;;6.55;2.35;;;3.40;91.70;;;;;;4928224;29;20035;-91
2021/04/08 02:04:18;;;;;;;4.43;1.73;;;3.30;91.60;;;;;;4928127;29;20398;-92
2021/04/08 02:06:47;;;;;;;5.88;2.03;;;3.30;91.30;;;;;;4928271;29;20386;-91
2021/04/08 02:09:13;;;;;;;13.45;2.05;;;3.30;91.40;;;;;;4928147;29;20386;-91
2021/04/08 02:11:41;;;;;;;3.97;1.10;;;3.40;91.50;;;;;;4928055;29;20040;-92
2021/04/08 02:14:09;;;;;;;4.78;1.33;;;3.30;91.40;;;;;;4927936;29;20079;-91
2021/04/08 02:16:36;;;;;;;5.47;1.80;;;3.30;91.60;;;;;;4928103;29;20038;-92
2021/04/08 02:19:06;;;;;;;2.40;1.10;;;3.40;91.50;;;;;;4927895;29;20757;-91
2021/04/08 02:21:32;;;;;;;6.95;1.52;;;3.40;91.70;;;;;;4927766;29;20635;-91
2021/04/08 02:23:58;;;;;;;9.00;2.00;;;3.40;91.20;;;;;;4929278;29;20039;-89
2021/04/08 02:26:24;;;;;;;3.60;1.40;;;3.40;91.00;;;;;;4928125;29;20044;-92
2021/04/08 02:28:50;;;;;;;8.20;2.35;;;3.40;91.20;;;;;;4927137;29;20075;-91
2021/04/08 02:31:17;;;;;;;8.55;1.80;;;3.50;91.30;;;;;;4927239;29;20430;-92
2021/04/08 02:33:43;;;;;;;4.25;1.40;;;3.50;90.70;;;;;;4927919;29;20382;-91
2021/04/08 02:36:08;;;;;;;4.03;1.45;;;3.50;90.70;;;;;;4927620;29;20051;-92
2021/04/08 02:38:35;;;;;;;4.15;1.10;;;3.50;90.40;;;;;;4927490;29;20039;-90
2021/04/08 02:41:08;;;;;;;10.07;1.67;;;3.50;90.70;;;;;;4927157;29;20046;-91
2021/04/08 02:43:36;;;;;;;3.50;1.40;;;3.50;91.00;;;;;;4927104;29;20039;-92
2021/04/08 02:46:03;;;;;;;5.00;1.65;;;3.50;90.90;;;;;;4929064;29;20044;-91
2021/04/08 02:48:32;;;;;;;11.80;1.85;;;3.50;91.20;;;;;;4926995;29;20130;-91
2021/04/08 02:51:18;;;;;;;7.78;1.75;;;3.40;91.70;;;;;;4926847;29;20039;-91
2021/04/08 02:54:17;;;;;;;9.60;2.95;;;3.40;91.60;;;;;;4927074;29;20114;-91
2021/04/08 02:56:52;;;;;;;6.43;2.03;;;3.30;92.10;;;;;;4922581;29;20035;-92
2021/04/08 02:59:25;;;;;;;9.07;1.80;;;3.30;92.40;;;;;;4926946;29;20066;-91
2021/04/08 03:02:01;;;;;;;7.82;1.88;;;3.20;92.30;;;;;;4927123;29;20039;-92
2021/04/08 03:04:28;;;;;;;3.75;1.40;;;3.20;92.70;;;;;;4927211;29;20134;-92
2021/04/08 03:06:54;;;;;;;4.38;1.45;;;3.20;92.60;;;;;;4927167;29;20094;-91
2021/04/08 03:09:32;;;;;;;2.60;1.38;;;3.20;93.00;;;;;;4926428;29;20401;-91
2021/04/08 03:12:01;;;;;;;5.80;1.70;;;3.20;92.90;;;;;;4926573;29;20094;-91
2021/04/08 03:14:28;;;;;;;8.32;1.52;;;3.20;92.70;;;;;;4927271;29;20075;-91
2021/04/08 03:16:55;;;;;;;7.25;2.25;;;3.20;92.50;;;;;;4926562;29;20042;-91
2021/04/08 03:19:24;;;;;;;6.57;1.70;;;3.20;92.70;;;;;;4927178;29;20048;-91
2021/04/08 03:21:50;;;;;;;5.50;1.27;;;3.30;92.70;;;;;;4926381;29;20375;-90
2021/04/08 03:24:19;;;;;;;2.38;1.23;;;3.30;92.30;;;;;;4926698;29;20039;-91
2021/04/08 03:26:45;;;;;;;5.68;2.35;;;3.30;92.30;;;;;;4926596;29;20465;-91
2021/04/08 03:29:13;;;;;;;5.40;1.45;;;3.30;92.20;;;;;;4927736;29;20420;-92
2021/04/08 03:31:44;;;;;;;4.32;2.38;;;3.40;92.30;;;;;;4929340;29;20127;-91
2021/04/08 03:34:10;;;;;;;5.82;1.85;;;3.30;91.90;;;;;;4926372;29;20036;-92
2021/04/08 03:36:37;;;;;;;2.80;1.33;;;3.30;92.20;;;;;;4925351;29;20088;-92
2021/04/08 03:39:04;;;;;;;6.22;1.98;;;3.40;91.80;;;;;;4929428;29;20095;-91
2021/04/08 03:41:34;;;;;;;5.70;1.67;;;3.40;91.70;;;;;;4942527;29;20302;-92
2021/04/08 03:44:01;;;;;;;2.67;1.70;;;3.40;91.60;;;;;;4926365;29;20070;-91
2021/04/08 03:46:26;;;;;;;5.80;1.73;;;3.50;91.70;;;;;;4926230;29;20043;-92
2021/04/08 03:48:54;;;;;;;4.45;1.85;;;3.50;91.40;;;;;;4925863;29;20050;-92
2021/04/08 03:51:24;;;;;;;5.20;1.25;;;3.50;91.30;;;;;;4926251;29;20368;-92
2021/04/08 03:53:49;;;;;;;3.83;1.42;;;3.50;91.50;;;;;;4925924;29;20122;-92
2021/04/08 03:56:16;;;;;;;6.65;1.90;;;3.50;91.30;;;;;;4925749;29;20070;-92
2021/04/08 03:58:42;;;;;;;7.88;1.75;;;3.40;91.50;;;;;;4925687;29;20070;-93
2021/04/08 04:01:08;;;;;;;4.43;1.65;;;3.40;91.50;;;;;;4926404;29;20117;-92
2021/04/08 04:03:36;;;;;;;6.07;1.90;;;3.30;91.60;;;;;;4926331;29;20079;-93
2021/04/08 04:06:01;;;;;;;3.50;1.55;;;3.30;91.60;;;;;;4925736;29;20044;-92
2021/04/08 04:08:27;;;;;;;4.82;1.55;;;3.20;91.70;;;;;;4925925;29;20035;-93
2021/04/08 04:10:53;;;;;;;7.07;1.73;;;3.20;91.40;;;;;;4926213;29;20282;-92
2021/04/08 04:13:19;;;;;;;2.13;1.83;;;3.30;91.60;;;;;;4925582;29;20039;-93
2021/04/08 04:15:50;;;;;;;9.82;2.03;;;3.20;91.40;;;;;;4926150;29;20039;-92
2021/04/08 04:18:17;;;;;;;6.63;1.33;;;3.20;91.60;;;;;;4925626;29;20118;-93
2021/04/08 04:20:44;;;;;;;3.80;1.80;;;3.30;91.60;;;;;;4925599;29;20469;-92
2021/04/08 04:23:09;;;;;;;5.68;1.85;;;3.30;91.40;;;;;;4926908;29;20047;-90
2021/04/08 04:25:35;;;;;;;4.15;1.30;;;3.20;91.70;;;;;;4927010;29;20039;-93
2021/04/08 04:28:01;;;;;;;6.18;1.70;;;3.20;91.60;;;;;;4925336;29;20040;-93
2021/04/08 04:30:26;;;;;;;5.97;1.27;;;3.20;91.30;;;;;;4928899;29;20039;-93
2021/04/08 04:32:53;;;;;;;4.15;1.83;;;3.20;91.40;;;;;;4925688;29;20032;-92
2021/04/08 04:35:19;;;;;;;9.98;1.50;;;3.10;91.10;;;;;;4925773;29;20409;-93
2021/04/08 04:37:45;;;;;;;5.82;1.17;;;3.10;91.10;;;;;;4925202;29;20058;-93
2021/04/08 04:40:14;;;;;;;4.35;1.70;;;3.10;91.30;;;;;;4925507;29;20043;-94
2021/04/08 04:42:41;;;;;;;4.45;1.35;;;3.10;91.50;;;;;;4925684;29;20043;-92
2021/04/08 04:45:07;;;;;;;7.63;2.15;;;3.00;91.30;;;;;;4925068;29;20036;-93
2021/04/08 04:47:33;;;;;;;10.30;2.17;;;3.00;91.40;;;;;;4925076;29;20127;-93
2021/04/08 04:50:01;;;;;;;9.18;1.70;;;3.10;91.60;;;;;;4925171;29;20134;-93
2021/04/08 04:52:27;;;;;;;9.20;1.80;;;3.10;91.20;;;;;;4924998;29;20032;-93
2021/04/08 04:54:55;;;;;;;8.57;1.98;;;3.20;91.60;;;;;;4925028;29;20122;-93
2021/04/08 04:57:20;;;;;;;10.88;2.50;;;3.20;91.30;;;;;;4924733;29;20089;-93
2021/04/08 04:59:46;;;;;;;10.68;2.38;;;3.30;91.20;;;;;;4925134;29;20122;-93
2021/04/08 05:02:12;;;;;;;5.80;1.73;;;3.40;90.90;;;;;;4925504;29;20062;-93
2021/04/08 05:04:55;;;;;;;4.13;1.77;;;3.40;90.90;;;;;;4925273;29;20470;-93
2021/04/08 05:07:21;;;;;;;3.90;2.05;;;3.50;90.90;;;;;;4925096;29;20040;-92
2021/04/08 05:09:46;;;;;;;9.75;1.85;;;3.50;90.50;;;;;;4925514;29;20078;-92
2021/04/08 05:12:12;;;;;;;2.78;1.50;;;3.50;90.80;;;;;;4925170;29;20545;-93
2021/04/08 05:14:38;;;;;;;8.75;1.73;;;3.60;90.40;;;;;;4925176;29;20075;-92
2021/04/08 05:17:03;;;;;;;6.47;1.92;;;3.60;90.70;;;;;;4924951;29;20036;-94
2021/04/08 05:19:31;;;;;;;8.45;2.20;;;3.50;90.70;;;;;;4924591;29;20122;-92
2021/04/08 05:21:56;;;;;;;4.18;2.17;;;3.50;90.60;;;;;;4925453;29;20039;-92
2021/04/08 05:24:22;;;;;;;5.45;1.95;;;3.50;90.70;;;;;;4928364;29;20044;-91
2021/04/08 05:26:48;;;;;;;4.68;1.90;;;3.50;90.80;;;;;;4925146;29;20040;-92
2021/04/08 05:29:13;;;;;;;10.93;2.67;;;3.50;90.70;;;;;;4925291;29;20044;-91
2021/04/08 05:31:39;;;;;;;5.03;1.50;;;3.50;90.80;;;;;;4925223;29;20035;-91
2021/04/08 05:34:07;;;;;;;6.95;2.17;;;3.50;90.90;;;;;;4941733;29;20298;-92
2021/04/08 05:36:33;;;;;;;4.63;1.77;;;3.50;90.70;;;;;;4925164;29;20032;-92
2021/04/08 05:38:58;;;;;;;7.90;2.63;;;3.50;91.00;;;;;;4924680;29;20043;-91
2021/04/08 05:41:24;;;;;;;7.93;1.80;;;3.50;90.80;;;;;;4925094;29;20134;-91
2021/04/08 05:43:50;;;;;;;6.60;2.25;;;3.50;91.10;;;;;;4925363;29;20051;-93
2021/04/08 05:46:15;;;;;;;10.93;2.28;;;3.50;90.80;;;;;;4929515;29;20054;-92
2021/04/08 05:48:41;;;;;;;8.48;2.22;;;3.50;91.00;;;;;;4924542;29;20046;-92
2021/04/08 05:51:07;;;;;;;9.00;3.88;;;3.50;90.90;;;;;;4924468;29;20433;-91
2021/04/08 05:53:32;;;;;;;8.68;2.30;;;3.50;90.80;;;;;;4924666;29;20070;-92
2021/04/08 05:55:58;;;;;;;9.18;1.65;;;3.60;90.90;;;;;;4924850;29;20275;-93
2021/04/08 05:58:23;;;;;;;5.40;1.73;;;3.60;90.70;;;;;;4924823;29;20110;-92
2021/04/08 06:00:49;;;;;;;7.93;2.38;;;3.60;90.60;;;;;;4927671;29;20409;-92
2021/04/08 06:03:15;;;;;;;7.28;2.05;;;3.50;90.40;;;;;;4928169;29;20039;-92
2021/04/08 06:05:41;;;;;;;5.13;2.17;;;3.50;90.70;;;;;;4927852;29;20042;-93
2021/04/08 06:08:07;;;;;;;4.22;1.50;;;3.60;90.80;;;;;;4928078;29;20099;-92
2021/04/08 06:10:33;;;;;;;4.60;1.95;;;3.70;90.60;;;;;;4927704;29;20094;-92
2021/04/08 06:12:58;;;;;;;9.00;2.13;;;3.70;90.60;;;;;;4927955;29;20126;-92
2021/04/08 06:15:24;;;;;;;8.43;2.40;;;3.70;90.50;;;;;;4931114;29;20035;-93
2021/04/08 06:17:50;;;;;;;7.43;2.13;;;3.80;90.20;;;;;;4927560;29;20395;-90
2021/04/08 06:20:16;;;;;;;6.38;1.95;;;3.80;90.00;;;;;;4927574;29;20402;-91
2021/04/08 06:22:42;;;;;;;5.30;1.52;;;3.90;90.00;;;;;;4928553;29;20047;-89
2021/04/08 06:25:08;;;;;;;6.90;2.55;;;3.90;90.00;;;;;;4929243;29;20213;-91
2021/04/08 06:27:35;;;;;;;5.38;2.00;;;3.80;90.00;;;;;;4927659;29;20142;-92
2021/04/08 06:30:02;;;;;;;6.95;2.10;;;3.90;90.10;;;;;;4927518;29;20043;-92
2021/04/08 06:32:27;;;;;;;5.60;1.83;;;3.90;89.50;;;;;;4927941;29;20070;-92
2021/04/08 06:34:53;;;;;;;2.50;1.73;;;4.00;89.50;;;;;;4927134;29;20071;-91
2021/04/08 06:37:18;;;;;;;5.60;1.83;;;4.00;89.10;;;;;;4943851;29;20040;-91
2021/04/08 06:39:45;;;;;;;4.32;1.60;;;4.00;89.30;;;;;;4927285;29;20405;-91
2021/04/08 06:42:11;;;;;;;5.13;1.58;;;4.10;88.60;;;;;;4927245;29;20046;-90
2021/04/08 06:44:38;;;;;;;6.18;1.70;;;4.10;89.60;;;;;;4927601;29;20046;-91
2021/04/08 06:47:05;;;;;;;3.58;2.15;;;4.20;88.20;;;;;;4927186;29;20035;-91
2021/04/08 06:49:42;;;;;;;15.57;2.75;;;4.30;89.00;;;;;;4943581;29;20042;-91
2021/04/08 06:52:10;;;;;;;6.20;1.92;;;4.40;88.60;;;;;;4927412;29;20395;-92
2021/04/08 06:54:37;;;;;;;8.57;2.03;;;4.50;88.60;;;;;;4926517;29;20039;-91
2021/04/08 06:57:04;;;;;;;3.35;1.33;;;4.70;87.50;;;;;;4943822;29;20031;-92
2021/04/08 06:59:31;;;;;;;9.70;2.50;;;4.80;86.50;;;;;;4926950;29;20048;-93
2021/04/08 07:01:58;;;;;;;3.47;1.30;;;4.90;85.40;;;;;;4926766;29;20134;-92
2021/04/08 07:04:24;;;;;;;5.57;1.90;;;4.90;85.70;;;;;;4926910;29;20040;-92
2021/04/08 07:06:50;;;;;;;11.20;1.90;;;4.90;84.30;;;;;;4926858;29;20039;-92
2021/04/08 07:09:16;;;;;;;6.13;1.77;;;5.00;84.70;;;;;;4930068;29;20053;-92
2021/04/08 07:11:42;;;;;;;5.60;1.65;;;5.10;84.70;;;;;;4925940;29;20031;-91
2021/04/08 07:14:10;;;;;;;6.82;2.33;;;5.20;84.10;;;;;;4926927;29;20050;-92
2021/04/08 07:16:36;;;;;;;6.28;2.28;;;5.30;84.50;;;;;;4926554;29;20044;-92
2021/04/08 07:19:04;;;;;;;6.47;2.33;;;5.30;84.60;;;;;;4926546;29;20043;-93
2021/04/08 07:21:31;;;;;;;8.32;2.30;;;5.40;83.50;;;;;;4926616;29;20035;-93
2021/04/08 07:24:17;;;;;;;6.63;2.45;;;5.50;83.60;;;;;;4927230;29;20054;-92
2021/04/08 07:26:58;;;;;;;14.68;2.47;;;5.50;81.80;;;;;;4926373;29;20050;-92
2021/04/08 07:29:40;;;;;;;4.15;1.75;;;5.50;81.80;;;;;;4926368;29;20358;-92
2021/04/08 07:32:10;;;;;;;3.17;1.52;;;5.50;82.10;;;;;;4926366;29;20067;-91
2021/04/08 07:34:37;;;;;;;8.85;2.47;;;5.60;82.00;;;;;;4926578;29;20109;-92
2021/04/08 07:37:04;;;;;;;5.25;1.60;;;5.60;80.80;;;;;;4942987;29;20036;-93
2021/04/08 07:39:39;;;;;;;5.00;1.75;;;5.70;80.70;;;;;;4926505;29;20044;-91
2021/04/08 07:42:08;;;;;;;5.50;1.90;;;5.80;81.30;;;;;;4926415;29;20090;-92
2021/04/08 07:44:55;;;;;;;4.07;1.38;;;5.90;79.80;;;;;;4926200;29;20107;-92
2021/04/08 07:47:29;;;;;;;3.53;1.45;;;6.00;79.20;;;;;;4926221;29;20091;-92
2021/04/08 07:50:08;;;;;;;8.52;1.65;;;6.00;78.20;;;;;;4926171;29;20044;-93
2021/04/08 07:52:46;;;;;;;9.43;1.70;;;6.00;78.40;;;;;;4942598;29;20043;-92
2021/04/08 07:55:21;;;;;;;6.43;1.75;;;6.10;79.20;;;;;;4942546;29;20044;-93
2021/04/08 07:57:53;;;;;;;7.63;1.73;;;6.20;79.00;;;;;;4926285;29;20386;-91
2021/04/08 08:00:30;;;;;;;5.80;1.50;;;6.30;77.60;;;;;;4943265;29;20077;-91
2021/04/08 08:03:02;;;;;;;5.57;1.77;;;6.20;75.50;;;;;;4931283;29;20047;-92
2021/04/08 08:05:35;;;;;;;2.80;1.30;;;6.10;76.00;;;;;;4926036;29;20043;-91
2021/04/08 08:08:16;;;;;;;5.30;1.50;;;6.10;74.90;;;;;;4925399;29;20046;-92
2021/04/08 08:10:55;;;;;;;10.95;1.92;;;6.00;75.70;;;;;;4942623;29;20035;-93
2021/04/08 08:13:27;;;;;;;18.60;3.03;;;6.00;76.20;;;;;;4925976;29;20066;-93
2021/04/08 08:15:57;;;;;;;3.15;1.40;;;6.00;75.10;;;;;;4925562;29;20398;-92
2021/04/08 08:18:46;;;;;;;3.78;1.40;;;6.00;74.30;;;;;;4925550;29;20130;-93
2021/04/08 08:21:15;;;;;;;10.10;1.65;;;6.00;74.60;;;;;;4925788;29;20051;-87
2021/04/08 08:23:52;;;;;;;7.43;1.85;;;6.00;73.20;;;;;;4925224;29;20035;-90
2021/04/08 08:26:34;;;;;;;10.45;1.75;;;5.90;74.00;;;;;;4925491;29;20035;-91
2021/04/08 08:29:09;;;;;;;7.00;1.50;;;5.90;73.50;;;;;;4925320;29;20130;-93
2021/04/08 08:31:58;;;;;;;14.25;1.60;;;5.90;74.00;;;;;;4925210;29;20031;-93
2021/04/08 08:34:34;;;;;;;5.05;1.23;;;5.90;73.80;;;;;;4915972;29;20403;-92
2021/04/08 08:37:11;;;;;;;4.05;1.52;;;5.80;73.90;;;;;;4925472;29;20294;-93
2021/04/08 08:39:39;;;;;;;6.00;2.95;;;5.90;73.50;;;;;;4941973;29;20046;-92
2021/04/08 08:42:10;;;;;;;2.22;1.23;;;6.00;73.40;;;;;;4925098;29;20046;-92
2021/04/08 08:44:37;;;;;;;4.97;1.20;;;6.10;72.90;;;;;;4925262;29;20036;-92
2021/04/08 08:47:29;;;;;;;4.65;1.63;;;6.10;73.10;;;;;;4925380;29;20118;-92
2021/04/08 08:50:16;;;;;;;7.13;1.80;;;6.30;73.00;;;;;;4925637;29;20043;-93
2021/04/08 08:52:44;;;;;;;4.68;1.60;;;6.30;73.00;;;;;;4941087;29;20063;-92
2021/04/08 08:55:12;;;;;;;2.88;1.38;;;6.50;72.40;;;;;;4926061;29;20268;-93
2021/04/08 08:57:39;;;;;;;5.00;1.70;;;6.40;74.20;;;;;;4941757;29;20069;-93
2021/04/08 09:00:07;;;;;;;3.63;1.40;;;6.40;74.90;;;;;;4925339;29;20306;-92
2021/04/08 09:02:34;;;;;;;7.82;1.48;;;6.10;78.60;;;;;;4909590;29;20039;-93
2021/04/08 09:05:01;;;;;;;4.13;1.73;;;5.80;80.20;;;;;;4924993;29;20615;-92
2021/04/08 09:07:28;;;;;;;7.47;1.70;;;5.60;81.60;;;;;;4924845;29;20130;-92
2021/04/08 09:10:02;;;;;;;4.43;1.38;;;5.40;83.40;;;;;;4924975;29;20050;-93
2021/04/08 09:12:27;;;;;;;3.53;2.05;;;5.30;84.60;;;;;;4924879;29;20032;-92
2021/04/08 09:14:55;;;;;;;5.32;2.17;;;5.10;85.50;;;;;;4925299;29;20036;-92
2021/04/08 09:17:37;;;;;;;2.88;1.60;;;5.20;85.80;;;;;;4924779;29;20036;-91
2021/04/08 09:20:05;;;;;;;3.57;1.50;;;5.30;85.80;;;;;;4925385;29;20321;-91
2021/04/08 09:22:30;;;;;;;6.82;1.83;;;5.40;84.40;;;;;;4925124;29;20043;-90
2021/04/08 09:24:56;;;;;;;6.88;1.75;;;5.40;84.00;;;;;;4924427;29;20054;-91
2021/04/08 09:27:23;;;;;;;5.20;2.00;;;5.60;84.30;;;;;;4940619;29;20050;-90
2021/04/08 09:29:58;;;;;;;3.58;2.10;;;5.90;84.30;;;;;;4923641;29;20106;-90
2021/04/08 09:32:27;;;;;;;5.18;1.60;;;6.30;85.00;;;;;;4924021;29;20063;-89
2021/04/08 09:35:04;;;;;;;3.50;1.30;;;6.70;82.00;;;;;;4942299;29;20045;-89
2021/04/08 09:37:47;;;;;;;4.18;1.50;;;7.10;81.10;;;;;;4927709;29;20032;-90
2021/04/08 09:40:22;;;;;;;;;;;7.30;77.00;;;;;;4927980;29;20049;-90
2021/04/08 09:42:56;;;;;;;4.93;1.60;;;7.50;75.80;;;;;;4927722;29;19997;-89
2021/04/08 09:45:23;;;;;;;5.38;1.42;;;7.60;73.70;;;;;;4927672;29;20057;-90
2021/04/08 09:48:08;;;;;;;6.40;2.25;;;7.60;72.60;;;;;;4927613;29;20098;-90
2021/04/08 09:50:44;;;;;;;3.85;1.40;;;7.60;71.80;;;;;;4927528;29;20039;-90
2021/04/08 09:53:10;;;;;;;8.93;2.00;;;7.50;73.90;;;;;;4927374;29;20043;-91
2021/04/08 09:55:36;;;;;;;6.72;1.52;;;7.30;74.90;;;;;;4931144;29;20409;-90
2021/04/08 09:58:04;;;;;;;3.53;1.10;;;7.10;72.80;;;;;;4929045;29;20045;-90
2021/04/08 10:00:31;;;;;;;5.93;1.52;;;6.80;75.10;;;;;;4944317;29;20067;-90
2021/04/08 10:03:01;;;;;;;5.90;1.55;;;6.80;76.80;;;;;;4928228;29;20126;-91
2021/04/08 10:05:31;;;;;;;2.83;1.35;;;6.60;81.30;;;;;;4928034;29;20043;-91
2021/04/08 10:07:58;;;;;;;5.97;2.25;;;6.40;82.30;;;;;;4927993;29;20093;-91
2021/04/08 10:10:44;;;;;;;6.47;1.73;;;6.40;83.50;;;;;;4927723;29;20048;-92
2021/04/08 10:13:19;;;;;;;8.82;1.98;;;6.40;83.60;;;;;;4927502;29;20038;-91
2021/04/08 10:15:45;;;;;;;8.05;1.60;;;6.30;82.90;;;;;;4927520;29;20039;-90
2021/04/08 10:18:19;;;;;;;6.00;1.77;;;6.20;82.60;;;;;;4927383;29;20058;-91
2021/04/08 10:20:52;;;;;;;4.28;1.55;;;6.30;82.90;;;;;;4928223;29;20032;-90
2021/04/08 10:23:44;;;;;;;3.30;1.95;;;6.50;83.20;;;;;;4926918;29;20039;-90
2021/04/08 10:26:22;;;;;;;5.25;1.23;;;6.90;79.00;;;;;;4943431;29;20032;-89
2021/04/08 10:28:53;;;;;;;6.85;1.60;;;7.10;77.00;;;;;;4943428;29;20039;-91
2021/04/08 10:31:20;;;;;;;4.35;1.38;;;7.30;76.60;;;;;;4926364;29;20035;-89
2021/04/08 10:33:48;;;;;;;3.50;1.30;;;7.50;76.60;;;;;;4925980;29;20094;-90
2021/04/08 10:36:31;;;;;;;3.88;1.17;;;7.70;76.70;;;;;;4942929;29;20101;-90
2021/04/08 10:39:17;;;;;;;3.40;1.25;;;7.90;75.10;;;;;;4926309;29;20061;-91
2021/04/08 10:42:11;;;;;;;2.40;1.40;;;7.50;74.40;;;;;;4926689;29;20052;-90
2021/04/08 10:44:39;;;;;;;2.80;1.15;;;7.20;75.00;;;;;;4926274;29;20126;-91
2021/04/08 10:47:19;;;;;;;3.58;1.38;;;6.80;75.70;;;;;;4926548;29;20047;-89
2021/04/08 10:49:48;;;;;;;2.72;1.10;;;6.60;77.90;;;;;;4929836;29;20188;-90
2021/04/08 10:52:18;;;;;;;1.17;0.85;;;6.50;76.70;;;;;;4927298;29;20182;-90
2021/04/08 10:54:47;;;;;;;4.65;1.30;;;6.60;75.20;;;;;;4943376;29;20112;-91
2021/04/08 10:57:15;;;;;;;2.28;1.00;;;6.70;76.10;;;;;;4926238;29;20071;-90
2021/04/08 10:59:42;;;;;;;2.65;1.63;;;6.80;78.20;;;;;;4942911;29;20114;-91
2021/04/08 11:02:31;;;;;;;3.92;1.52;;;6.90;77.00;;;;;;4926621;29;20047;-88
2021/04/08 11:05:02;;;;;;;2.53;1.52;;;7.10;76.90;;;;;;4943364;29;20394;-90
2021/04/08 11:07:37;;;;;;;4.35;1.35;;;7.10;73.40;;;;;;4926276;29;20165;-88
2021/04/08 11:10:17;;;;;;;7.07;1.45;;;7.20;73.00;;;;;;4926083;29;20051;-90
2021/04/08 11:12:43;;;;;;;1.95;0.98;;;7.40;72.20;;;;;;4926192;29;20044;-89
2021/04/08 11:15:11;;;;;;;2.10;1.38;;;7.50;71.70;;;;;;4942380;29;20035;-89
2021/04/08 11:17:50;;;;;;;2.22;1.02;;;7.70;74.00;;;;;;4925852;29;20046;-90
2021/04/08 11:20:26;;;;;;;1.95;1.13;;;8.00;69.90;;;;;;4925906;29;20099;-91
2021/04/08 11:22:53;;;;;;;1.55;1.30;;;8.10;70.90;;;;;;4926441;29;20046;-91
2021/04/08 11:25:19;;;;;;;2.00;1.38;;;8.30;69.00;;;;;;4925785;29;20071;-90
2021/04/08 11:27:51;;;;;;;3.60;1.45;;;8.50;67.20;;;;;;4926070;29;20055;-92
2021/04/08 11:30:34;;;;;;;1.85;1.02;;;8.60;67.20;;;;;;4926672;29;20051;-91
2021/04/08 11:33:00;;;;;;;3.00;1.00;;;8.60;67.30;;;;;;4925959;29;20035;-92
2021/04/08 11:35:37;;;;;;;4.72;1.35;;;8.60;63.90;;;;;;4926155;29;20145;-91
2021/04/08 11:38:05;;;;;;;1.65;1.25;;;8.50;62.50;;;;;;4925303;29;20054;-90
2021/04/08 11:40:31;;;;;;;4.35;1.42;;;8.40;63.70;;;;;;4925971;29;20039;-90
2021/04/08 11:42:57;;;;;;;1.83;0.98;;;8.50;66.50;;;;;;4928896;29;20035;-91
2021/04/08 11:45:29;;;;;;;2.20;1.02;;;8.60;64.70;;;;;;4926015;29;20465;-91
2021/04/08 11:48:05;;;;;;;;;;;8.60;63.40;;;;;;4925713;29;20043;-90
2021/04/08 11:50:44;;;;;;;2.92;1.05;;;8.60;61.10;;;;;;4941428;29;19974;-91
2021/04/08 11:53:12;;;;;;;5.93;1.50;;;8.60;63.70;;;;;;4925721;29;20036;-90
2021/04/08 11:55:49;;;;;;;4.50;1.40;;;8.70;63.50;;;;;;4925344;29;20039;-89
2021/04/08 11:58:30;;;;;;;4.38;1.38;;;8.60;61.50;;;;;;4924373;29;20035;-91
2021/04/08 12:01:22;;;;;;;2.97;1.02;;;8.70;62.80;;;;;;4924993;29;20035;-90
2021/04/08 12:03:50;;;;;;;0.85;0.75;;;8.80;61.00;;;;;;4920886;29;20094;-90
2021/04/08 12:06:18;;;;;;;2.08;0.98;;;9.00;60.00;;;;;;4941780;29;20036;-92
2021/04/08 12:08:55;;;;;;;2.65;1.33;;;9.00;58.30;;;;;;4925317;29;20046;-91
2021/04/08 12:11:21;;;;;;;2.67;1.05;;;8.90;59.50;;;;;;4925634;29;20035;-92
2021/04/08 12:14:02;;;;;;;6.85;1.02;;;8.90;59.60;;;;;;4925361;29;20035;-89
2021/04/08 12:16:28;;;;;;;2.47;1.10;;;8.90;60.20;;;;;;4942151;29;20321;-91
2021/04/08 12:18:55;;;;;;;4.15;1.00;;;8.80;61.10;;;;;;4925362;29;20402;-92
2021/04/08 12:21:22;;;;;;;2.63;1.15;;;8.70;61.20;;;;;;4926047;29;20195;-88
2021/04/08 12:23:48;;;;;;;2.85;1.00;;;8.60;61.80;;;;;;4925226;29;20044;-90
2021/04/08 12:26:29;;;;;;;2.78;1.50;;;8.40;60.40;;;;;;4925361;29;20046;-91
2021/04/08 12:28:54;;;;;;;2.10;1.00;;;8.10;62.10;;;;;;4925368;29;20049;-92
2021/04/08 12:31:20;;;;;;;7.63;3.60;;;8.00;62.70;;;;;;4925456;29;20127;-91
2021/04/08 12:33:45;;;;;;;11.02;6.95;;;7.80;60.80;;;;;;4926697;29;20280;-91
2021/04/08 12:36:12;;;;;;;4.47;2.85;;;7.80;61.80;;;;;;4925100;29;20122;-90
2021/04/08 12:38:39;;;;;;;2.13;1.40;;;7.80;63.70;;;;;;4925347;29;20035;-90
2021/04/08 12:41:05;;;;;;;1.92;1.25;;;8.00;62.10;;;;;;4925607;29;20065;-91
2021/04/08 12:43:31;;;;;;;3.97;1.20;;;8.00;61.30;;;;;;4926309;29;20047;-91
2021/04/08 12:45:58;;;;;;;3.63;1.38;;;8.00;62.30;;;;;;4924751;29;20094;-91
2021/04/08 12:48:24;;;;;;;2.13;1.02;;;8.00;61.30;;;;;;4925347;29;20119;-91
2021/04/08 12:50:51;;;;;;;1.42;0.88;;;8.00;61.90;;;;;;4924704;29;20390;-91
2021/04/08 12:53:19;;;;;;;1.98;1.13;;;8.00;63.00;;;;;;4925657;29;20043;-92
2021/04/08 12:55:45;;;;;;;3.45;1.20;;;8.00;63.60;;;;;;4925024;29;20100;-91
2021/04/08 12:58:11;;;;;;;1.75;0.85;;;8.00;62.70;;;;;;4924553;29;20302;-91
2021/04/08 13:00:37;;;;;;;2.72;1.20;;;8.10;61.90;;;;;;4924808;29;20118;-92
2021/04/08 13:03:05;;;;;;;12.23;1.80;;;8.20;61.90;;;;;;4924737;29;20047;-90
2021/04/08 13:05:31;;;;;;;1.52;0.98;;;8.40;60.70;;;;;;4924887;29;20044;-91
2021/04/08 13:07:56;;;;;;;2.15;1.00;;;8.50;60.30;;;;;;4925667;29;20438;-91
2021/04/08 13:10:23;;;;;;;2.30;1.23;;;8.60;60.80;;;;;;4928806;29;20043;-91